Tiempo atmosférico en la estación meteorológica de Hijar, Teruel (300 m.)



Fecha
DESCASC
Temp. máxima en grados centígrados (hora)
DESCASC
Temp. mínima en grados centígrados (hora)
DESCASC
Temp. media en grados centígrados
DESCASC
Racha de viento máxima en m/sg (hora)
DESCASC
Velocidad máxima media en intervalos de 10 minutos(hora)
DESCASC
Precipitaciones diarias en mm
DESCASC
Precipitaciones de 00:00 a 06:00 en mm
DESCASC
Precipitaciones de 06:00 a 12:00 en mm
DESCASC
Precipitaciones de 12:00 a 18:00 en mm
DESCASC
Precipitaciones de 18:00 a 24:00 en mm
DESCASC
15-07-2018 37.5 (16:00) 20.2 (07:20) 28.9 9.17 (17:40) 6.39 (17:40) 0 0 0 0 0
14-07-2018 36.7 (16:20) 19.4 (05:00) 28.1 11.39 (19:30) 8.33 (19:30) 0 0 0 0 0
13-07-2018 33.9 (16:10) 19.2 (07:10) 26.6 15 (15:40) 8.89 (18:20) 0 0 0 0 0
12-07-2018 34.4 (16:40) 18.9 (00:00) 26.7 15.28 (19:20) 9.72 (19:20) 0.4 0.2 0 0 0.2
11-07-2018 32.8 (15:30) 20.5 (00:00) 26.6 12.22 (18:00) 7.5 (20:30) 0 0 0 0 0
10-07-2018 36.1 (16:00) 21.2 (00:00) 28.6 11.39 (19:40) 5 (19:40) 0 0 0 0 0
09-07-2018 36.7 (16:10) 21.7 (00:00) 29.2 8.89 (17:40) 5.56 (00:50) 0 0 0 0 0
08-07-2018 36.2 (17:50) 20.4 (07:00) 28.3 8.61 (22:30) 6.11 (22:20) 0 0 0 0 0
07-07-2018 33.7 (18:00) 19.9 (00:00) 26.8 11.39 (21:30) 8.06 (20:00) 0 0 0 0 0
06-07-2018 33 (17:00) 17.2 (00:00) 25.1 8.33 (02:40) 5.83 (02:30) 0 0 0 0 0
05-07-2018 31.8 (16:30) 18.5 (06:20) 25.1 13.61 (00:50) 8.61 (00:50) 0 0 0 0 0
04-07-2018 35.8 (15:40) 19.5 (07:00) 27.6 11.67 (23:50) 7.78 (17:30) 0 0 0 0 0
03-07-2018 36.2 (16:30) 19.7 (07:10) 28 12.5 (18:30) 8.61 (18:30) 0 0 0 0 0
02-07-2018 34.7 (15:50) 20.9 (07:10) 27.8 9.72 (08:10) 5.56 (08:10) 0 0 0 0 0
01-07-2018 34.1 (14:50) 18.5 (00:00) 26.3 7.5 (00:20) 5 (00:10) 0.8 0 0 0.8 0
30-06-2018 34.3 (16:00) 18.5 (07:20) 26.4 15.83 (19:20) 10 (19:20) 0 0 0 0 0
29-06-2018 33.7 (15:40) 19 (00:00) 26.4 11.11 (20:30) 7.78 (20:50) 0 0 0 0 0
28-06-2018 30.6 (13:10) 19.3 (00:00) 24.9 6.67 (23:30) 4.44 (22:20) 0 0 0 0 0
27-06-2018 34.4 (15:00) 19.2 (00:00) 26.8 9.17 (18:10) 4.72 (18:30) 0 0 0 0 0
26-06-2018 36.1 (18:00) 19.2 (00:00) 27.6 8.89 (20:00) 6.39 (20:00) 0 0 0 0 0
25-06-2018 35.6 (17:50) 17.4 (00:00) 26.5 7.5 (11:00) 3.33 (05:50) 0 0 0 0 0
24-06-2018 34.4 (17:10) 17.2 (00:00) 25.8 6.39 (17:20) 2.5 (17:20) 0 0 0 0 0
23-06-2018 35 (17:00) 17.9 (00:00) 26.4 9.17 (00:30) 5.83 (00:30) 0 0 0 0 0
22-06-2018 35.9 (16:20) 20.6 (07:20) 28.3 8.89 (15:40) 5 (23:59) 0 0 0 0 0
21-06-2018 36.2 (17:10) 17 (00:00) 26.6 5 (13:00) 3.89 (01:00) 0 0 0 0 0
20-06-2018 34.5 (16:30) 16.6 (00:00) 25.6 11.67 (18:50) 7.22 (18:20) 0 0 0 0 0
19-06-2018 31.2 (17:00) 15.6 (00:00) 23.4 8.06 (23:20) 5.83 (23:20) 0 0 0 0 0
18-06-2018 31 (17:20) 16.9 (00:00) 23.9 10.83 (14:30) 5.56 (03:20) 0 0 0 0 0
17-06-2018 30.2 (17:30) 14.3 (00:00) 22.3 11.67 (15:40) 6.39 (00:50) 0 0 0 0 0

Gráficas

Temp. máximas Temp. mínimas Temp. medias Precipitaciones Rachas de viento máximas Velocidades máximas media en intervalos de 10 minutos

Datos horarios

Fecha y hora oficial Temperatura (ºC) Velocidad del viento (km/h) Dirección del viento Racha (km/h) Dirección de racha Precipitación (mm) Presión (hPa) Tendencia (hPa) Humedad (%)
2018-07-16 23:00:00 22.7 17 Oeste 29 Noroeste 0 -- -- 53
2018-07-16 22:00:00 23.8 15 Noroeste 35 Oeste 0 -- -- 49
2018-07-16 21:00:00 25.2 14 Noroeste 40 Oeste 0 -- -- 45
2018-07-16 20:00:00 27 17 Noroeste 42 Noroeste 0 -- -- 43
2018-07-16 19:00:00 28.7 14 Noroeste 48 Norte 0 -- -- 40
2018-07-16 18:00:00 30.8 14 Noroeste 42 Norte 0 -- -- 34
2018-07-16 17:00:00 31.1 12 Noroeste 46 Norte 0 -- -- 33
2018-07-16 16:00:00 30.8 16 Noroeste 44 Oeste 0 -- -- 34
2018-07-16 15:00:00 30.3 18 Noroeste 51 Noroeste 0 -- -- 36
2018-07-16 14:00:00 30.1 22 Noroeste 50 Noroeste 0 -- -- 37
2018-07-16 13:00:00 29.6 16 Noroeste 54 Noroeste 0 -- -- 41
2018-07-16 12:00:00 28.6 19 Noroeste 51 Oeste 0 -- -- 43
2018-07-16 11:00:00 26.9 22 Noroeste 50 Oeste 0 -- -- 47
2018-07-16 10:00:00 25.6 18 Noroeste 51 Oeste 0 -- -- 47
2018-07-16 09:00:00 22.1 20 Oeste 44 Oeste 0 -- -- 51
2018-07-16 08:00:00 21.5 26 Oeste 41 Oeste 0 -- -- 55
2018-07-16 07:00:00 20.8 23 Oeste 40 Oeste 0 -- -- 61
2018-07-16 06:00:00 21 22 Oeste 39 Oeste 0 -- -- 60
2018-07-16 05:00:00 21.5 14 Oeste 24 Oeste 0 -- -- 57
2018-07-16 04:00:00 22.2 13 Oeste 23 Oeste 0 -- -- 60
2018-07-16 03:00:00 22.7 9 Oeste 40 Oeste 0 -- -- 61
2018-07-16 02:00:00 23.8 17 Noroeste 45 Oeste 0 -- -- 53
2018-07-16 01:00:00 25.4 14 Noroeste 37 Oeste 0 -- -- 51
2018-07-16 00:00:00 26.8 8 Sudoeste 11 Sudoeste 0 -- -- 53
2018-07-15 23:00:00 28.8 4 Oeste 19 Nordeste 0 -- -- 49
2018-07-15 22:00:00 30.8 8 Nordeste 19 Nordeste 0 -- -- 43
2018-07-15 21:00:00 32.4 11 Norte 21 Norte 0 -- -- 25
2018-07-15 20:00:00 34.5 8 Noroeste 27 Norte 0 -- -- 24
2018-07-15 19:00:00 36.5 6 Noroeste 31 Este 0 -- -- 25
2018-07-15 18:00:00 35.3 17 Este 33 Este 0 -- -- 23
2018-07-15 17:00:00 35.6 14 Nordeste 27 Nordeste 0 -- -- 24
2018-07-15 16:00:00 37.5 6 Norte 24 Este 0 -- -- 22
2018-07-15 15:00:00 36.2 6 Nordeste 26 Este 0 -- -- 23
2018-07-15 14:00:00 35.8 5 Norte 19 Noroeste 0 -- -- 24
2018-07-15 13:00:00 34.6 6 Norte 16 Nordeste 0 -- -- 26
2018-07-15 12:00:00 31.5 4 Norte 14 Nordeste 0 -- -- 36
2018-07-15 11:00:00 28.9 5 Nordeste 13 Nordeste 0 -- -- 44
2018-07-15 10:00:00 26.9 5 Nordeste 13 Nordeste 0 -- -- 48
2018-07-15 09:00:00 25.2 4 Nordeste 9 Nordeste 0 -- -- 58
2018-07-15 08:00:00 21.9 3 Oeste 9 Sudoeste 0 -- -- 67
2018-07-15 07:00:00 20.4 6 Sudoeste 14 Oeste 0 -- -- 70
2018-07-15 06:00:00 21.3 10 Oeste 14 Oeste 0 -- -- 59
2018-07-15 05:00:00 21 3 Sudoeste 13 Norte 0 -- -- 68
2018-07-15 04:00:00 22.6 4 Nordeste 12 Este 0 -- -- 58
2018-07-15 03:00:00 24.4 4 Norte 18 Sudoeste 0 -- -- 53
2018-07-15 02:00:00 25.9 12 Sudoeste 26 Sudoeste 0 -- -- 54
2018-07-15 01:00:00 24.5 14 Sudoeste 18 Sudoeste 0 -- -- 62
2018-07-15 00:00:00 26.2 3 Este 10 Nordeste 0 -- -- 57
2018-07-14 23:00:00 27.7 9 Nordeste 20 Sudeste 0 -- -- 51
2018-07-14 22:00:00 29.6 10 Sudeste 23 Sudeste 0 -- -- 49
2018-07-14 21:00:00 30.7 14 Sudeste 26 Sudeste 0 -- -- 47
2018-07-14 20:00:00 31.2 20 Sudeste 41 Sudeste 0 -- -- 42
2018-07-14 19:00:00 35.4 9 Nordeste 27 Nordeste 0 -- -- 29
2018-07-14 18:00:00 36.5 5 Norte 32 Norte 0 -- -- 29
2018-07-14 17:00:00 35.5 9 Nordeste 34 Nordeste 0 -- -- 30
2018-07-14 16:00:00 35.8 12 Nordeste 24 Nordeste 0 -- -- 31
2018-07-14 15:00:00 34.8 12 Nordeste 25 Este 0 -- -- 33
2018-07-14 14:00:00 33.2 11 Nordeste 21 Nordeste 0 -- -- 35
2018-07-14 13:00:00 31.8 7 Este 20 Este 0 -- -- 37
2018-07-14 12:00:00 30.6 4 Norte 16 Nordeste 0 -- -- 41
2018-07-14 11:00:00 29.3 4 Norte 12 Oeste 0 -- -- 44
2018-07-14 10:00:00 26.8 5 Oeste 12 Sudoeste 0 -- -- 49
2018-07-14 09:00:00 24.1 9 Sudoeste 12 Sudoeste 0 -- -- 58
2018-07-14 08:00:00 21.3 4 Sudoeste 14 Sudoeste 0 -- -- 67
2018-07-14 07:00:00 19.9 9 Sudoeste 13 Sudoeste 0 -- -- 64
2018-07-14 06:00:00 19.5 5 Sudoeste 14 Sudoeste 0 -- -- 65
2018-07-14 05:00:00 19.4 8 Sudoeste 12 Oeste 0 -- -- 60
2018-07-14 04:00:00 21 3 Sur 7 Sudoeste 0 -- -- 54
2018-07-14 03:00:00 22.2 8 Sudeste 27 Este 0 -- -- 51
2018-07-14 02:00:00 22.7 14 Este 28 Este 0 -- -- 46
2018-07-14 01:00:00 23.4 10 Nordeste 23 Este 0 -- -- 46
2018-07-14 00:00:00 25 11 Este 32 Este 0 -- -- 48
2018-07-13 23:00:00 26.4 16 Este 33 Sudeste 0 -- -- 41
2018-07-13 22:00:00 28 22 Este 41 Sudeste 0 -- -- 39
2018-07-13 21:00:00 30.2 26 Sudeste 38 Sudeste 0 -- -- 34
2018-07-13 20:00:00 31.6 28 Sudeste 40 Este 0 -- -- 34
2018-07-13 19:00:00 32.6 25 Sudeste 44 Este 0 -- -- 30
2018-07-13 18:00:00 33.4 28 Este 42 Este 0 -- -- 30
2018-07-13 17:00:00 33.2 23 Este 41 Este 0 -- -- 34
2018-07-13 16:00:00 33.6 21 Este 54 Este 0 -- -- 31
2018-07-13 15:00:00 32.5 13 Nordeste 28 Nordeste 0 -- -- 35
2018-07-13 14:00:00 30.6 12 Nordeste 24 Nordeste 0 -- -- 43
2018-07-13 13:00:00 28.6 13 Sudeste 28 Este 0 -- -- 50
2018-07-13 12:00:00 28.5 6 Nordeste 17 Este 0 -- -- 51
2018-07-13 11:00:00 26.5 3 Sudoeste 13 Oeste 0 -- -- 62
2018-07-13 10:00:00 25.1 4 Oeste 13 Oeste 0 -- -- 66
2018-07-13 09:00:00 22.2 9 Oeste 13 Oeste 0 -- -- 73
2018-07-13 08:00:00 20.2 8 Oeste 14 Oeste 0 -- -- 79
2018-07-13 07:00:00 19.3 8 Sudoeste 12 Oeste 0 -- -- 83
2018-07-13 06:00:00 19.6 6 Sudoeste 12 Sudoeste 0 -- -- 87
2018-07-13 05:00:00 20.3 6 Sudoeste 11 Oeste 0 -- -- 86
2018-07-13 04:00:00 21.6 4 Oeste 19 Sudeste 0 -- -- 79
2018-07-13 03:00:00 22.1 9 Sudeste 19 Sudeste 0 -- -- 76
2018-07-13 02:00:00 22 4 Sudeste 6 Sudeste 0 -- -- 81
2018-07-13 01:00:00 22.5 3 Noroeste 9 Este 0 -- -- 79
2018-07-13 00:00:00 23.1 6 Sudoeste 30 Sur 0 -- -- 77
2018-07-12 23:00:00 24.2 21 Sur 31 Sur 0.2 -- -- 75
2018-07-12 22:00:00 26.1 17 Este 33 Nordeste 0 -- -- 60
2018-07-12 21:00:00 27.9 4 Oeste 25 Sudeste 0 -- -- 52
2018-07-12 20:00:00 28.9 16 Sudeste 55 Sur 0 -- -- 49
2018-07-12 19:00:00 33.6 5 Noroeste 23 Norte 0 -- -- 35
2018-07-12 18:00:00 33.9 6 Noroeste 24 Norte 0 -- -- 36
2018-07-12 17:00:00 33.9 7 Norte 19 Noroeste 0 -- -- 38
2018-07-12 16:00:00 33 7 Norte 21 Noroeste 0 -- -- 40
2018-07-12 15:00:00 32.4 5 Norte 17 Nordeste 0 -- -- 42
2018-07-12 14:00:00 31 9 Noroeste 21 Norte 0 -- -- 44
2018-07-12 13:00:00 30.1 6 Noroeste 18 Norte 0 -- -- 47
2018-07-12 12:00:00 28.8 7 Norte 18 Norte 0 -- -- 52
2018-07-12 11:00:00 27 6 Noroeste 15 Norte 0 -- -- 57
2018-07-12 10:00:00 25 5 Norte 14 Noroeste 0 -- -- 60
2018-07-12 09:00:00 22.5 4 Noroeste 12 Noroeste 0 -- -- 70
2018-07-12 08:00:00 19.4 8 Sudoeste 11 Sudoeste 0 -- -- 85
2018-07-12 07:00:00 19.2 5 Sudoeste 9 Sudoeste 0 -- -- 82
2018-07-12 06:00:00 19.4 6 Oeste 9 Oeste 0 -- -- 82
2018-07-12 05:00:00 20.1 4 Sudoeste 8 Sudeste 0.2 -- -- 80
2018-07-12 04:00:00 21.1 4 Noroeste 12 Oeste 0 -- -- 70
2018-07-12 03:00:00 21.3 3 Sudeste 15 Sudoeste 0 -- -- 66
2018-07-12 02:00:00 21.4 7 Sudoeste 15 Sudoeste 0 -- -- 65
2018-07-12 01:00:00 21.6 4 Sudoeste 7 Sudoeste 0 -- -- 64
2018-07-12 00:00:00 22.4 2 Norte 13 Sudeste 0 -- -- 62
2018-07-11 23:00:00 23.9 11 Sudeste 20 Este 0 -- -- 55
2018-07-11 22:00:00 25.6 8 Sudoeste 31 Sudoeste 0 -- -- 49
2018-07-11 21:00:00 26 17 Sudoeste 40 Sur 0 -- -- 48
2018-07-11 20:00:00 26.6 19 Sur 37 Sur 0 -- -- 48
2018-07-11 19:00:00 26.1 26 Sur 41 Sur 0 -- -- 52
2018-07-11 18:00:00 28.1 26 Sur 44 Sur 0 -- -- 45
2018-07-11 17:00:00 29 6 Nordeste 19 Este 0 -- -- 47
2018-07-11 16:00:00 31 4 Norte 20 Nordeste 0 -- -- 36
2018-07-11 15:00:00 31.9 8 Nordeste 23 Nordeste 0 -- -- 35
2018-07-11 14:00:00 31.9 6 Norte 17 Nordeste 0 -- -- 35
2018-07-11 13:00:00 31.2 6 Norte 16 Noroeste 0 -- -- 36
2018-07-11 12:00:00 29.7 6 Norte 14 Noroeste 0 -- -- 37
2018-07-11 11:00:00 27.2 5 Norte 14 Norte 0 -- -- 43
2018-07-11 10:00:00 25.3 7 Noroeste 18 Noroeste 0 -- -- 47
2018-07-11 09:00:00 24.3 5 Noroeste 19 Oeste 0 -- -- 50
2018-07-11 08:00:00 21.4 6 Sudoeste 11 Oeste 0 -- -- 57
2018-07-11 07:00:00 20.5 6 Sudoeste 13 Oeste 0 -- -- 58
2018-07-11 06:00:00 20.9 9 Sudoeste 12 Sudoeste 0 -- -- 57
2018-07-11 05:00:00 21.1 3 Sudoeste 20 Oeste 0 -- -- 57
2018-07-11 04:00:00 22.1 10 Oeste 19 Oeste 0 -- -- 56
2018-07-11 03:00:00 22.5 9 Oeste 22 Oeste 0 -- -- 53
2018-07-11 02:00:00 23.4 14 Oeste 28 Oeste 0 -- -- 52
2018-07-11 01:00:00 24.5 16 Oeste 26 Oeste 0 -- -- 50
2018-07-11 00:00:00 25.8 13 Oeste 22 Oeste 0 -- -- 46
2018-07-10 23:00:00 26.7 11 Oeste 21 Noroeste 0 -- -- 44
2018-07-10 22:00:00 28 10 Noroeste 24 Noroeste 0 -- -- 41
2018-07-10 21:00:00 29.9 8 Noroeste 26 Noroeste 0 -- -- 36
2018-07-10 20:00:00 31.7 12 Noroeste 41 Noroeste 0 -- -- 34
2018-07-10 19:00:00 33.7 12 Noroeste 36 Norte 0 -- -- 32
2018-07-10 18:00:00 35.1 12 Norte 32 Norte 0 -- -- 30
2018-07-10 17:00:00 35.7 11 Norte 33 Norte 0 -- -- 30
2018-07-10 16:00:00 36.1 11 Noroeste 29 Norte 0 -- -- 30
2018-07-10 15:00:00 34.8 10 Noroeste 31 Norte 0 -- -- 33
2018-07-10 14:00:00 33.8 10 Noroeste 29 Noroeste 0 -- -- 34
2018-07-10 13:00:00 32.9 10 Noroeste 24 Oeste 0 -- -- 35
2018-07-10 12:00:00 31 6 Noroeste 23 Norte 0 -- -- 39
2018-07-10 11:00:00 29.2 8 Noroeste 19 Noroeste 0 -- -- 42
2018-07-10 10:00:00 27.4 7 Noroeste 26 Norte 0 -- -- 44
2018-07-10 09:00:00 25 11 Oeste 19 Oeste 0 -- -- 49
2018-07-10 08:00:00 22 10 Sudoeste 14 Sudoeste 0 -- -- 56
2018-07-10 07:00:00 21.2 10 Sudoeste 14 Sudoeste 0 -- -- 59
2018-07-10 06:00:00 21.3 8 Sudoeste 15 Oeste 0 -- -- 59
2018-07-10 05:00:00 21.7 5 Sudoeste 12 Noroeste 0 -- -- 60
2018-07-10 04:00:00 22.4 5 Oeste 13 Oeste 0 -- -- 59
2018-07-10 03:00:00 23.6 10 Oeste 25 Noroeste 0 -- -- 57
2018-07-10 02:00:00 24.6 16 Oeste 25 Oeste 0 -- -- 56
2018-07-10 01:00:00 26.2 13 Noroeste 33 Noroeste 0 -- -- 53
2018-07-10 00:00:00 27.1 13 Oeste 28 Oeste 0 -- -- 44
2018-07-09 23:00:00 27.9 16 Oeste 27 Oeste 0 -- -- 41
2018-07-09 22:00:00 29.2 9 Noroeste 24 Noroeste 0 -- -- 39
2018-07-09 21:00:00 30.6 8 Noroeste 24 Noroeste 0 -- -- 35
2018-07-09 20:00:00 32 6 Noroeste 28 Norte 0 -- -- 31
2018-07-09 19:00:00 34.5 9 Noroeste 29 Noroeste 0 -- -- 31
2018-07-09 18:00:00 35.9 9 Noroeste 32 Noroeste 0 -- -- 29
2018-07-09 17:00:00 36.2 11 Norte 27 Noroeste 0 -- -- 30
2018-07-09 16:00:00 36.2 7 Norte 24 Noroeste 0 -- -- 31
2018-07-09 15:00:00 35.3 4 Sudoeste 19 Norte 0 -- -- 33
2018-07-09 14:00:00 34.5 6 Noroeste 19 Oeste 0 -- -- 35
2018-07-09 13:00:00 32.6 7 Norte 21 Norte 0 -- -- 41
2018-07-09 12:00:00 31.4 8 Norte 21 Noroeste 0 -- -- 43
2018-07-09 11:00:00 30 6 Noroeste 18 Norte 0 -- -- 45
2018-07-09 10:00:00 27.8 8 Oeste 20 Oeste 0 -- -- 50
2018-07-09 09:00:00 24.1 10 Oeste 19 Oeste 0 -- -- 60
2018-07-09 08:00:00 22.3 10 Oeste 18 Noroeste 0 -- -- 63
2018-07-09 07:00:00 21.7 11 Sudoeste 17 Oeste 0 -- -- 64
2018-07-09 06:00:00 22.5 7 Oeste 23 Noroeste 0 -- -- 61
2018-07-09 05:00:00 23.1 12 Oeste 18 Sudoeste 0 -- -- 59
2018-07-09 04:00:00 23.9 12 Sudoeste 22 Oeste 0 -- -- 56
2018-07-09 03:00:00 23.6 12 Oeste 19 Oeste 0 -- -- 58
2018-07-09 02:00:00 25 9 Noroeste 25 Noroeste 0 -- -- 55
2018-07-09 01:00:00 26.1 15 Oeste 30 Oeste 0 -- -- 51
2018-07-09 00:00:00 26.4 17 Oeste 26 Oeste 0 -- -- 51
2018-07-08 23:00:00 27.1 16 Sudoeste 31 Oeste 0 -- -- 48
2018-07-08 22:00:00 27.6 14 Sudoeste 30 Sudoeste 0 -- -- 51
2018-07-08 21:00:00 29.3 19 Sudoeste 29 Oeste 0 -- -- 44
2018-07-08 20:00:00 32.5 5 Noroeste 12 Noroeste 0 -- -- 31
2018-07-08 19:00:00 33.9 4 Noroeste 17 Norte 0 -- -- 30
2018-07-08 18:00:00 36.1 8 Norte 22 Noroeste 0 -- -- 29
2018-07-08 17:00:00 35.4 8 Nordeste 25 Norte 0 -- -- 33
2018-07-08 16:00:00 35 5 Noroeste 19 Este 0 -- -- 34
2018-07-08 15:00:00 33.7 6 Nordeste 20 Norte 0 -- -- 38
2018-07-08 14:00:00 33.1 5 Noroeste 15 Noroeste 0 -- -- 39
2018-07-08 13:00:00 30.8 6 Oeste 18 Nordeste 0 -- -- 44
2018-07-08 12:00:00 29.5 5 Norte 20 Noroeste 0 -- -- 48
2018-07-08 11:00:00 28.3 6 Noroeste 15 Oeste 0 -- -- 51
2018-07-08 10:00:00 26.2 5 Noroeste 15 Noroeste 0 -- -- 58
2018-07-08 09:00:00 24.4 6 Noroeste 14 Norte 0 -- -- 64
2018-07-08 08:00:00 21.2 8 Sudoeste 13 Oeste 0 -- -- 75
2018-07-08 07:00:00 20.4 6 Sudoeste 13 Sudoeste 0 -- -- 77
2018-07-08 06:00:00 20.6 4 Sudoeste 14 Oeste 0 -- -- 77
2018-07-08 05:00:00 21.5 8 Oeste 16 Noroeste 0 -- -- 76
2018-07-08 04:00:00 22.1 8 Oeste 15 Oeste 0 -- -- 75
2018-07-08 03:00:00 22.5 3 Norte 10 Norte 0 -- -- 72
2018-07-08 02:00:00 22.8 3 Sudoeste 11 Sudoeste 0 -- -- 69
2018-07-08 01:00:00 23.1 6 Sudoeste 14 Oeste 0 -- -- 69
2018-07-08 00:00:00 23.6 10 Oeste 19 Oeste 0 -- -- 66
2018-07-07 23:00:00 24.9 9 Norte 36 Oeste 0 -- -- 60
2018-07-07 22:00:00 28.7 19 Este 41 Nordeste 0 -- -- 51
2018-07-07 21:00:00 30.5 26 Nordeste 38 Nordeste 0 -- -- 45
2018-07-07 20:00:00 31.8 29 Nordeste 39 Nordeste 0 -- -- 43
2018-07-07 19:00:00 33 24 Nordeste 37 Nordeste 0 -- -- 39
2018-07-07 18:00:00 33.7 18 Nordeste 31 Nordeste 0 -- -- 36
2018-07-07 17:00:00 33.1 19 Este 30 Nordeste 0 -- -- 36
2018-07-07 16:00:00 33 17 Este 33 Este 0 -- -- 35
2018-07-07 15:00:00 31.7 11 Este 25 Sudeste 0 -- -- 37
2018-07-07 14:00:00 29.6 7 Nordeste 18 Nordeste 0 -- -- 42
2018-07-07 13:00:00 28 4 Norte 12 Noroeste 0 -- -- 46
2018-07-07 12:00:00 26.8 3 Oeste 12 Norte 0 -- -- 48
2018-07-07 11:00:00 26.7 5 Noroeste 17 Norte 0 -- -- 49
2018-07-07 10:00:00 25.1 6 Noroeste 16 Oeste 0 -- -- 52
2018-07-07 09:00:00 23.2 5 Noroeste 18 Norte 0 -- -- 56
2018-07-07 08:00:00 21.1 4 Noroeste 8 Norte 0 -- -- 60
2018-07-07 07:00:00 19.9 0 Calma 3 Oeste 0 -- -- 62
2018-07-07 06:00:00 20.3 3 Sudoeste 5 Sudoeste 0 -- -- 61
2018-07-07 05:00:00 21.2 3 Nordeste 8 Nordeste 0 -- -- 59
2018-07-07 04:00:00 21.9 0 Calma 13 Noroeste 0 -- -- 55
2018-07-07 03:00:00 23.5 6 Oeste 16 Oeste 0 -- -- 48
2018-07-07 02:00:00 24.1 8 Oeste 18 Sudoeste 0 -- -- 46
2018-07-07 01:00:00 24.5 11 Sudoeste 15 Oeste 0 -- -- 44
2018-07-07 00:00:00 25.8 3 Noroeste 13 Sudeste 0 -- -- 41
2018-07-06 23:00:00 26.7 6 Este 13 Sudeste 0 -- -- 37
2018-07-06 22:00:00 28 0 Calma 8 Noroeste 0 -- -- 35
2018-07-06 21:00:00 29.3 3 Norte 13 Nordeste 0 -- -- 34
2018-07-06 20:00:00 30.3 7 Nordeste 14 Nordeste 0 -- -- 33
2018-07-06 19:00:00 31.5 5 Norte 17 Norte 0 -- -- 32
2018-07-06 18:00:00 32.9 7 Norte 17 Norte 0 -- -- 31
2018-07-06 17:00:00 33 5 Noroeste 21 Norte 0 -- -- 31
2018-07-06 16:00:00 31.4 4 Norte 18 Este 0 -- -- 35
2018-07-06 15:00:00 29.4 9 Sudeste 24 Este 0 -- -- 37
2018-07-06 14:00:00 28.8 5 Norte 20 Noroeste 0 -- -- 40
2018-07-06 13:00:00 28.2 5 Nordeste 19 Oeste 0 -- -- 40
2018-07-06 12:00:00 27.1 4 Norte 14 Norte 0 -- -- 42
2018-07-06 11:00:00 25.5 6 Noroeste 17 Norte 0 -- -- 45
2018-07-06 10:00:00 23.7 6 Noroeste 23 Oeste 0 -- -- 50
2018-07-06 09:00:00 20.7 13 Oeste 24 Oeste 0 -- -- 58
2018-07-06 08:00:00 18.5 12 Sudoeste 19 Sudoeste 0 -- -- 65
2018-07-06 07:00:00 17.2 11 Sudoeste 18 Oeste 0 -- -- 68
2018-07-06 06:00:00 17.6 11 Sudoeste 20 Sudoeste 0 -- -- 66
2018-07-06 05:00:00 17.9 12 Sudoeste 26 Oeste 0 -- -- 66
2018-07-06 04:00:00 18.2 17 Oeste 26 Oeste 0 -- -- 64
2018-07-06 03:00:00 18.7 19 Oeste 30 Oeste 0 -- -- 62
2018-07-06 02:00:00 19.3 16 Sudoeste 27 Oeste 0 -- -- 61
2018-07-06 01:00:00 20.5 15 Oeste 28 Oeste 0 -- -- 58
2018-07-06 00:00:00 21.6 12 Oeste 31 Noroeste 0 -- -- 54
2018-07-05 23:00:00 22.8 9 Noroeste 31 Noroeste 0 -- -- 49
2018-07-05 22:00:00 24.4 8 Noroeste 31 Norte 0 -- -- 45
2018-07-05 21:00:00 26.5 9 Noroeste 28 Norte 0 -- -- 38
2018-07-05 20:00:00 28.4 12 Noroeste 31 Noroeste 0 -- -- 35
2018-07-05 19:00:00 30 11 Noroeste 35 Norte 0 -- -- 33
2018-07-05 18:00:00 31.4 9 Noroeste 37 Noroeste 0 -- -- 31
2018-07-05 17:00:00 31.6 13 Noroeste 36 Norte 0 -- -- 33
2018-07-05 16:00:00 31.5 13 Noroeste 41 Norte 0 -- -- 34
2018-07-05 15:00:00 31.2 13 Noroeste 39 Norte 0 -- -- 34
2018-07-05 14:00:00 31.2 10 Noroeste 28 Noroeste 0 -- -- 36
2018-07-05 13:00:00 29.9 10 Noroeste 36 Oeste 0 -- -- 38
2018-07-05 12:00:00 28.4 13 Noroeste 34 Oeste 0 -- -- 42
2018-07-05 11:00:00 26.3 12 Noroeste 37 Oeste 0 -- -- 47
2018-07-05 10:00:00 24.2 10 Noroeste 33 Noroeste 0 -- -- 53
2018-07-05 09:00:00 22.1 8 Noroeste 30 Noroeste 0 -- -- 59
2018-07-05 08:00:00 19.6 19 Oeste 35 Oeste 0 -- -- 69
2018-07-05 07:00:00 18.5 18 Oeste 27 Oeste 0 -- -- 73
2018-07-05 06:00:00 18.7 16 Oeste 36 Oeste 0 -- -- 72
2018-07-05 05:00:00 19.2 21 Oeste 33 Oeste 0 -- -- 70
2018-07-05 04:00:00 19.5 19 Oeste 32 Oeste 0 -- -- 70
2018-07-05 03:00:00 19.9 17 Oeste 40 Oeste 0 -- -- 68
2018-07-05 02:00:00 20.8 27 Oeste 45 Oeste 0 -- -- 65
2018-07-05 01:00:00 21.6 31 Oeste 49 Oeste 0 -- -- 64
2018-07-05 00:00:00 22.6 24 Oeste 42 Oeste 0 -- -- 60
2018-07-04 23:00:00 24.3 15 Oeste 33 Oeste 0 -- -- 52
2018-07-04 22:00:00 26.6 9 Noroeste 29 Noroeste 0 -- -- 45
2018-07-04 21:00:00 29.1 8 Nordeste 24 Nordeste 0 -- -- 52
2018-07-04 20:00:00 30.7 19 Nordeste 33 Nordeste 0 -- -- 46
2018-07-04 19:00:00 32.8 21 Nordeste 38 Este 0 -- -- 42
2018-07-04 18:00:00 34.4 17 Nordeste 42 Nordeste 0 -- -- 38
2018-07-04 17:00:00 35.6 16 Nordeste 42 Nordeste 0 -- -- 35
2018-07-04 16:00:00 35.3 19 Nordeste 37 Este 0 -- -- 34
2018-07-04 15:00:00 34.4 22 Este 34 Este 0 -- -- 30
2018-07-04 14:00:00 33.3 18 Este 31 Nordeste 0 -- -- 33
2018-07-04 13:00:00 31.4 16 Este 27 Este 0 -- -- 38
2018-07-04 12:00:00 28.8 9 Nordeste 19 Este 0 -- -- 45
2018-07-04 11:00:00 27.8 4 Nordeste 12 Norte 0 -- -- 52
2018-07-04 10:00:00 26.1 3 Norte 10 Este 0 -- -- 57
2018-07-04 09:00:00 24.3 5 Nordeste 8 Nordeste 0 -- -- 62
2018-07-04 08:00:00 21.4 0 Calma 10 Oeste 0 -- -- 68
2018-07-04 07:00:00 19.5 5 Oeste 15 Oeste 0 -- -- 71
2018-07-04 06:00:00 20.6 9 Oeste 15 Oeste 0 -- -- 66
2018-07-04 05:00:00 20.6 8 Oeste 14 Oeste 0 -- -- 68
2018-07-04 04:00:00 21.6 2 Sur 5 Este 0 -- -- 61
2018-07-04 03:00:00 23.5 4 Este 8 Este 0 -- -- 57
2018-07-04 02:00:00 24.7 0 Calma 5 Sudeste 0 -- -- 53
2018-07-04 01:00:00 25.5 2 Sur 12 Oeste 0 -- -- 51
2018-07-04 00:00:00 26.4 4 Oeste 14 Sudoeste 0 -- -- 51
2018-07-03 23:00:00 27.8 5 Sudoeste 18 Este 0 -- -- 44
2018-07-03 22:00:00 29 13 Este 30 Este 0 -- -- 43
2018-07-03 21:00:00 30.5 22 Este 33 Este 0 -- -- 40
2018-07-03 20:00:00 31.9 25 Este 35 Este 0 -- -- 37
2018-07-03 19:00:00 33.1 23 Este 45 Este 0 -- -- 37
2018-07-03 18:00:00 34.1 21 Este 37 Este 0 -- -- 33
2018-07-03 17:00:00 35.5 14 Este 32 Este 0 -- -- 29
2018-07-03 16:00:00 34.9 9 Nordeste 27 Nordeste 0 -- -- 29
2018-07-03 15:00:00 33.7 9 Este 23 Este 0 -- -- 31
2018-07-03 14:00:00 32.3 15 Nordeste 26 Nordeste 0 -- -- 33
2018-07-03 13:00:00 32.3 6 Norte 17 Este 0 -- -- 36
2018-07-03 12:00:00 31.2 7 Norte 21 Noroeste 0 -- -- 38
2018-07-03 11:00:00 29.9 5 Norte 15 Norte 0 -- -- 41
2018-07-03 10:00:00 28.1 5 Noroeste 16 Noroeste 0 -- -- 43
2018-07-03 09:00:00 25.4 4 Noroeste 12 Oeste 0 -- -- 48
2018-07-03 08:00:00 21.3 8 Sudoeste 13 Sudoeste 0 -- -- 53
2018-07-03 07:00:00 19.8 7 Sudoeste 10 Sudoeste 0 -- -- 56
2018-07-03 06:00:00 20.7 2 Sudoeste 8 Oeste 0 -- -- 54
2018-07-03 05:00:00 21.9 6 Oeste 13 Sudoeste 0 -- -- 50
2018-07-03 04:00:00 23.6 10 Oeste 14 Oeste 0 -- -- 45
2018-07-03 03:00:00 23.5 9 Oeste 17 Sudoeste 0 -- -- 46
2018-07-03 02:00:00 24.6 10 Sudoeste 16 Sudoeste 0 -- -- 42
2018-07-03 01:00:00 25.6 6 Sudoeste 12 Oeste 0 -- -- 39
2018-07-03 00:00:00 27 6 Oeste 13 Oeste 0 -- -- 38
2018-07-02 23:00:00 28.4 3 Norte 6 Noroeste 0 -- -- 35
2018-07-02 22:00:00 29.5 3 Norte 7 Nordeste 0 -- -- 33
2018-07-02 21:00:00 30.5 4 Nordeste 15 Nordeste 0 -- -- 31
2018-07-02 20:00:00 32 4 Norte 18 Nordeste 0 -- -- 30
2018-07-02 19:00:00 33.4 8 Norte 22 Norte 0 -- -- 29
2018-07-02 18:00:00 34.2 8 Norte 22 Nordeste 0 -- -- 28
2018-07-02 17:00:00 34.5 7 Norte 20 Este 0 -- -- 27
2018-07-02 16:00:00 34.4 7 Norte 21 Norte 0 -- -- 28
2018-07-02 15:00:00 32.9 6 Norte 21 Noroeste 0 -- -- 29
2018-07-02 14:00:00 32.3 9 Norte 26 Norte 0 -- -- 29
2018-07-02 13:00:00 32.5 9 Oeste 24 Oeste 0 -- -- 29
2018-07-02 12:00:00 31.1 6 Noroeste 19 Norte 0 -- -- 33
2018-07-02 11:00:00 29.4 8 Noroeste 18 Noroeste 0 -- -- 37
2018-07-02 10:00:00 27.4 6 Noroeste 25 Oeste 0 -- -- 42
2018-07-02 09:00:00 24.5 15 Oeste 35 Oeste 0 -- -- 49
2018-07-02 08:00:00 21.7 19 Oeste 33 Oeste 0 -- -- 59
2018-07-02 07:00:00 21 10 Sudoeste 17 Sudoeste 0 -- -- 62
2018-07-02 06:00:00 21.5 11 Sudoeste 27 Oeste 0 -- -- 52
2018-07-02 05:00:00 22.3 14 Oeste 26 Oeste 0 -- -- 49
2018-07-02 04:00:00 22.2 11 Sudoeste 17 Sudoeste 0 -- -- 49
2018-07-02 03:00:00 22.1 6 Oeste 9 Oeste 0 -- -- 58
2018-07-02 02:00:00 21.9 3 Norte 18 Sudoeste 0 -- -- 59
2018-07-02 01:00:00 22.7 14 Sudoeste 18 Sudoeste 0 -- -- 69
2018-07-02 00:00:00 22.9 11 Sudoeste 15 Sudoeste 0 -- -- 69
2018-07-01 23:00:00 24.5 3 Sudoeste 8 Sudoeste 0 -- -- 61
2018-07-01 22:00:00 26.3 2 Sur 15 Noroeste 0 -- -- 55
2018-07-01 21:00:00 27.9 4 Noroeste 19 Norte 0 -- -- 50
2018-07-01 20:00:00 29.8 3 Nordeste 11 Nordeste 0 -- -- 47
2018-07-01 19:00:00 30.1 3 Este 22 Nordeste 0 -- -- 47
2018-07-01 18:00:00 30.2 5 Norte 20 Noroeste 0 -- -- 51
2018-07-01 17:00:00 29.2 14 Sudeste 22 Sudeste 0.8 -- -- 57
2018-07-01 16:00:00 31.4 4 Nordeste 17 Nordeste 0 -- -- 44
2018-07-01 15:00:00 33.7 5 Norte 21 Norte 0 -- -- 37
2018-07-01 14:00:00 32.2 9 Nordeste 21 Nordeste 0 -- -- 38
2018-07-01 13:00:00 32.1 4 Noroeste 15 Nordeste 0 -- -- 40
2018-07-01 12:00:00 29.8 5 Nordeste 15 Nordeste 0 -- -- 44
2018-07-01 11:00:00 28.1 4 Norte 10 Nordeste 0 -- -- 48
2018-07-01 10:00:00 25.9 2 Sur 8 Norte 0 -- -- 53
2018-07-01 09:00:00 23.5 3 Norte 8 Sudoeste 0 -- -- 59
2018-07-01 08:00:00 20.2 5 Sudoeste 11 Sudoeste 0 -- -- 73
2018-07-01 07:00:00 18.5 6 Sudoeste 9 Sudoeste 0 -- -- 78
2018-07-01 06:00:00 18.8 5 Oeste 12 Oeste 0 -- -- 76
2018-07-01 05:00:00 19 9 Sudoeste 13 Sudoeste 0 -- -- 70
2018-07-01 04:00:00 19.9 5 Sudoeste 8 Oeste 0 -- -- 65
2018-07-01 03:00:00 21.2 5 Este 12 Este 0 -- -- 60
2018-07-01 02:00:00 22.1 6 Este 18 Este 0 -- -- 58
2018-07-01 01:00:00 22.8 8 Este 27 Este 0 -- -- 58
2018-07-01 00:00:00 23.9 16 Este 30 Este 0 -- -- 57
2018-06-30 23:00:00 25.1 19 Este 36 Sudeste 0 -- -- 52
2018-06-30 22:00:00 26.6 25 Sudeste 40 Sudeste 0 -- -- 43
2018-06-30 21:00:00 28.9 29 Sudeste 50 Sudeste 0 -- -- 38
2018-06-30 20:00:00 30.8 36 Sudeste 57 Sudeste 0 -- -- 35
2018-06-30 19:00:00 32.3 31 Sudeste 54 Sudeste 0 -- -- 33
2018-06-30 18:00:00 33.4 30 Sudeste 50 Sudeste 0 -- -- 32
2018-06-30 17:00:00 33.6 29 Sudeste 45 Este 0 -- -- 34
2018-06-30 16:00:00 34.3 21 Sudeste 49 Este 0 -- -- 32
2018-06-30 15:00:00 33.1 15 Este 32 Este 0 -- -- 36
2018-06-30 14:00:00 32.3 12 Nordeste 30 Nordeste 0 -- -- 38
2018-06-30 13:00:00 30.8 14 Este 30 Este 0 -- -- 41
2018-06-30 12:00:00 29.1 15 Sudeste 27 Sudeste 0 -- -- 42
2018-06-30 11:00:00 27 9 Este 17 Este 0 -- -- 50
2018-06-30 10:00:00 25.3 3 Norte 11 Oeste 0 -- -- 60
2018-06-30 09:00:00 22.5 5 Oeste 14 Oeste 0 -- -- 68
2018-06-30 08:00:00 20 5 Oeste 9 Oeste 0 -- -- 77
2018-06-30 07:00:00 18.9 4 Oeste 9 Sudoeste 0 -- -- 78
2018-06-30 06:00:00 19.5 4 Sudoeste 10 Sudoeste 0 -- -- 77
2018-06-30 05:00:00 19.4 7 Sudoeste 10 Sudoeste 0 -- -- 66
2018-06-30 04:00:00 21 4 Noroeste 18 Sudeste 0 -- -- 58
2018-06-30 03:00:00 22 13 Sudeste 23 Sudeste 0 -- -- 54
2018-06-30 02:00:00 22.8 5 Este 14 Sudeste 0 -- -- 53
2018-06-30 01:00:00 23.3 5 Nordeste 26 Sudeste 0 -- -- 52
2018-06-30 00:00:00 24.3 18 Sudeste 30 Sudeste 0 -- -- 50
2018-06-29 23:00:00 25.4 19 Sudeste 37 Sudeste 0 -- -- 49
2018-06-29 22:00:00 26.6 25 Sudeste 37 Sudeste 0 -- -- 48
2018-06-29 21:00:00 28.3 26 Sudeste 40 Sudeste 0 -- -- 44
2018-06-29 20:00:00 29.7 25 Sudeste 40 Sudeste 0 -- -- 40
2018-06-29 19:00:00 30 25 Sudeste 38 Sudeste 0 -- -- 40
2018-06-29 18:00:00 32.1 23 Sudeste 37 Este 0 -- -- 37
2018-06-29 17:00:00 32.8 20 Sudeste 37 Sudeste 0 -- -- 37
2018-06-29 16:00:00 33.3 14 Sudeste 36 Este 0 -- -- 34
2018-06-29 15:00:00 32.4 18 Este 37 Este 0 -- -- 37
2018-06-29 14:00:00 31.1 15 Sudeste 34 Este 0 -- -- 41
2018-06-29 13:00:00 29.2 13 Este 28 Este 0 -- -- 44
2018-06-29 12:00:00 27 8 Este 18 Nordeste 0 -- -- 53
2018-06-29 11:00:00 25.8 4 Este 14 Nordeste 0 -- -- 60
2018-06-29 10:00:00 24.9 5 Nordeste 12 Norte 0 -- -- 64
2018-06-29 09:00:00 22.8 4 Noroeste 9 Norte 0 -- -- 68
2018-06-29 08:00:00 20 5 Oeste 10 Oeste 0 -- -- 79
2018-06-29 07:00:00 19.1 2 Sudoeste 8 Oeste 0 -- -- 80
2018-06-29 06:00:00 20 0 Calma 15 Nordeste 0 -- -- 77
2018-06-29 05:00:00 20.2 7 Norte 15 Norte 0 -- -- 76
2018-06-29 04:00:00 20.3 4 Noroeste 13 Sudoeste 0 -- -- 72
2018-06-29 03:00:00 20.9 8 Sudoeste 12 Sur 0 -- -- 74
2018-06-29 02:00:00 21.1 6 Sudoeste 18 Sudeste 0 -- -- 74
2018-06-29 01:00:00 22 12 Sudeste 24 Este 0 -- -- 72
2018-06-29 00:00:00 22.7 12 Nordeste 24 Nordeste 0 -- -- 61
2018-06-28 23:00:00 24 9 Sudeste 22 Este 0 -- -- 50
2018-06-28 22:00:00 25.7 10 Sudeste 14 Sudeste 0 -- -- 47
2018-06-28 21:00:00 26.9 5 Oeste 22 Oeste 0 -- -- 45
2018-06-28 20:00:00 26.7 10 Oeste 19 Oeste 0 -- -- 46
2018-06-28 19:00:00 27 6 Oeste 22 Sudoeste 0 -- -- 48
2018-06-28 18:00:00 27.5 7 Sur 13 Sur 0 -- -- 55
2018-06-28 17:00:00 27.4 4 Sur 12 Sur 0 -- -- 53
2018-06-28 16:00:00 27.9 10 Sudeste 17 Sudeste 0 -- -- 50
2018-06-28 15:00:00 27.8 2 Nordeste 8 Nordeste 0 -- -- 51
2018-06-28 14:00:00 28.5 3 Norte 13 Oeste 0 -- -- 49
2018-06-28 13:00:00 29.8 5 Norte 18 Noroeste 0 -- -- 48
2018-06-28 12:00:00 28.6 6 Norte 20 Norte 0 -- -- 50
2018-06-28 11:00:00 27.1 6 Norte 21 Oeste 0 -- -- 55
2018-06-28 10:00:00 25.3 6 Noroeste 16 Noroeste 0 -- -- 60
2018-06-28 09:00:00 23.2 9 Noroeste 18 Oeste 0 -- -- 67
2018-06-28 08:00:00 20.6 0 Calma 5 Nordeste 0 -- -- 78
2018-06-28 07:00:00 19.3 4 Oeste 10 Oeste 0 -- -- 80
2018-06-28 06:00:00 20 4 Oeste 11 Oeste 0 -- -- 75
2018-06-28 05:00:00 20.5 4 Oeste 13 Sudoeste 0 -- -- 75
2018-06-28 04:00:00 21.4 4 Sudoeste 6 Oeste 0 -- -- 74
2018-06-28 03:00:00 22.3 5 Oeste 13 Oeste 0 -- -- 72
2018-06-28 02:00:00 23.4 9 Sudoeste 19 Sudoeste 0 -- -- 68
2018-06-28 01:00:00 24.2 5 Sudoeste 18 Sudoeste 0 -- -- 66
2018-06-28 00:00:00 24.3 12 Sudoeste 19 Oeste 0 -- -- 65
2018-06-27 23:00:00 25 9 Oeste 18 Oeste 0 -- -- 62
2018-06-27 22:00:00 25.8 2 Noroeste 13 Noroeste 0 -- -- 59
2018-06-27 21:00:00 26.1 7 Oeste 15 Sudoeste 0 -- -- 62
2018-06-27 20:00:00 26.3 4 Sudoeste 24 Sudoeste 0 -- -- 60
2018-06-27 19:00:00 27.3 6 Oeste 33 Oeste 0 -- -- 62
2018-06-27 18:00:00 30.5 6 Oeste 17 Norte 0 -- -- 45
2018-06-27 17:00:00 31.4 8 Norte 13 Noroeste 0 -- -- 41
2018-06-27 16:00:00 32.3 6 Nordeste 23 Nordeste 0 -- -- 41
2018-06-27 15:00:00 34.4 8 Norte 20 Nordeste 0 -- -- 39
2018-06-27 14:00:00 32.5 6 Norte 16 Nordeste 0 -- -- 44
2018-06-27 13:00:00 30.3 5 Nordeste 16 Este 0 -- -- 49
2018-06-27 12:00:00 28.5 4 Norte 18 Nordeste 0 -- -- 54
2018-06-27 11:00:00 27.2 4 Norte 13 Noroeste 0 -- -- 57
2018-06-27 10:00:00 25.4 5 Noroeste 16 Norte 0 -- -- 62
2018-06-27 09:00:00 22.9 6 Noroeste 11 Noroeste 0 -- -- 70
2018-06-27 08:00:00 20 5 Oeste 8 Oeste 0 -- -- 79
2018-06-27 07:00:00 19.3 5 Sudoeste 6 Sudoeste 0 -- -- 81
2018-06-27 06:00:00 19.7 2 Sudoeste 8 Oeste 0 -- -- 78
2018-06-27 05:00:00 20.2 5 Oeste 10 Oeste 0 -- -- 77
2018-06-27 04:00:00 20.8 2 Oeste 16 Nordeste 0 -- -- 75
2018-06-27 03:00:00 21.5 2 Nordeste 12 Nordeste 0 -- -- 71
2018-06-27 02:00:00 22 6 Nordeste 12 Nordeste 0 -- -- 71
2018-06-27 01:00:00 22.9 8 Nordeste 13 Nordeste 0 -- -- 67
2018-06-27 00:00:00 24 11 Nordeste 19 Nordeste 0 -- -- 63
2018-06-26 23:00:00 25.7 14 Este 19 Este 0 -- -- 59
2018-06-26 22:00:00 28.4 15 Este 24 Este 0 -- -- 52
2018-06-26 21:00:00 30.3 18 Este 30 Este 0 -- -- 48
2018-06-26 20:00:00 32.2 23 Este 32 Este 0 -- -- 42
2018-06-26 19:00:00 34.3 4 Norte 19 Nordeste 0 -- -- 29
2018-06-26 18:00:00 36.1 6 Noroeste 16 Nordeste 0 -- -- 29
2018-06-26 17:00:00 34.5 5 Norte 18 Nordeste 0 -- -- 32
2018-06-26 16:00:00 35 8 Noroeste 18 Nordeste 0 -- -- 34
2018-06-26 15:00:00 32.5 6 Nordeste 17 Nordeste 0 -- -- 41
2018-06-26 14:00:00 30.7 4 Sudeste 20 Nordeste 0 -- -- 49
2018-06-26 13:00:00 30.3 5 Noroeste 16 Noroeste 0 -- -- 49
2018-06-26 12:00:00 29 6 Noroeste 18 Noroeste 0 -- -- 52
2018-06-26 11:00:00 27.3 4 Nordeste 15 Noroeste 0 -- -- 58
2018-06-26 10:00:00 24.9 4 Noroeste 10 Norte 0 -- -- 66
2018-06-26 09:00:00 23 4 Noroeste 12 Norte 0 -- -- 73
2018-06-26 08:00:00 20.9 8 Oeste 14 Oeste 0 -- -- 78
2018-06-26 07:00:00 19.5 8 Sudoeste 11 Sudoeste 0 -- -- 82
2018-06-26 06:00:00 19.5 4 Oeste 8 Sudoeste 0 -- -- 83
2018-06-26 05:00:00 19.3 4 Sudoeste 9 Oeste 0 -- -- 84
2018-06-26 04:00:00 19.6 5 Oeste 11 Sudoeste 0 -- -- 84
2018-06-26 03:00:00 20.6 3 Sudoeste 6 Norte 0 -- -- 76
2018-06-26 02:00:00 22.2 3 Noroeste 6 Nordeste 0 -- -- 67
2018-06-26 01:00:00 23.4 6 Este 12 Nordeste 0 -- -- 69
2018-06-26 00:00:00 24.5 9 Este 14 Este 0 -- -- 63
2018-06-25 23:00:00 27.1 6 Nordeste 12 Nordeste 0 -- -- 52
2018-06-25 22:00:00 29.5 2 Sudoeste 8 Nordeste 0 -- -- 34
2018-06-25 21:00:00 31.2 5 Nordeste 12 Nordeste 0 -- -- 33
2018-06-25 20:00:00 33 5 Norte 17 Norte 0 -- -- 32
2018-06-25 19:00:00 34.3 6 Norte 19 Noroeste 0 -- -- 30
2018-06-25 18:00:00 35.6 10 Norte 22 Norte 0 -- -- 28
2018-06-25 17:00:00 34.8 5 Noroeste 21 Norte 0 -- -- 30
2018-06-25 16:00:00 33.9 5 Norte 21 Norte 0 -- -- 33
2018-06-25 15:00:00 32.7 4 Norte 23 Noroeste 0 -- -- 37
2018-06-25 14:00:00 31.9 7 Norte 24 Noroeste 0 -- -- 39
2018-06-25 13:00:00 30.9 9 Norte 23 Norte 0 -- -- 42
2018-06-25 12:00:00 29.6 7 Noroeste 22 Oeste 0 -- -- 48
2018-06-25 11:00:00 27.7 8 Noroeste 27 Noroeste 0 -- -- 48
2018-06-25 10:00:00 25.8 6 Noroeste 17 Noroeste 0 -- -- 48
2018-06-25 09:00:00 23 5 Noroeste 14 Norte 0 -- -- 51
2018-06-25 08:00:00 18.9 7 Sudoeste 18 Sudoeste 0 -- -- 57
2018-06-25 07:00:00 17.5 9 Sudoeste 15 Sudoeste 0 -- -- 60
2018-06-25 06:00:00 18 11 Sudoeste 17 Sudoeste 0 -- -- 58
2018-06-25 05:00:00 19.4 4 Sudoeste 7 Sudoeste 0 -- -- 56
2018-06-25 04:00:00 20.3 3 Oeste 10 Sudoeste 0 -- -- 54
2018-06-25 03:00:00 20.8 3 Sudoeste 7 Oeste 0 -- -- 51
2018-06-25 02:00:00 21.7 3 Oeste 13 Sudoeste 0 -- -- 47
2018-06-25 01:00:00 22.4 9 Sudoeste 14 Oeste 0 -- -- 45
2018-06-25 00:00:00 23.6 6 Sudoeste 13 Oeste 0 -- -- 42
2018-06-24 23:00:00 25.7 5 Oeste 10 Sudoeste 0 -- -- 39
2018-06-24 22:00:00 28.3 3 Oeste 7 Noroeste 0 -- -- 38
2018-06-24 21:00:00 30.1 2 Noroeste 10 Noroeste 0 -- -- 34
2018-06-24 20:00:00 31.5 4 Norte 12 Nordeste 0 -- -- 24
2018-06-24 19:00:00 32.9 5 Norte 15 Nordeste 0 -- -- 27
2018-06-24 18:00:00 33.5 5 Norte 23 Noroeste 0 -- -- 29
2018-06-24 17:00:00 34.1 8 Norte 21 Norte 0 -- -- 29
2018-06-24 16:00:00 32.9 5 Norte 15 Noroeste 0 -- -- 34
2018-06-24 15:00:00 30.9 5 Noroeste 16 Norte 0 -- -- 40
2018-06-24 14:00:00 30 8 Norte 21 Noroeste 0 -- -- 42
2018-06-24 13:00:00 28.1 6 Norte 17 Norte 0 -- -- 45
2018-06-24 12:00:00 27.1 6 Noroeste 19 Noroeste 0 -- -- 54
2018-06-24 11:00:00 26 5 Noroeste 15 Noroeste 0 -- -- 57
2018-06-24 10:00:00 24.2 6 Noroeste 18 Oeste 0 -- -- 58
2018-06-24 09:00:00 21.6 4 Oeste 10 Oeste 0 -- -- 58
2018-06-24 08:00:00 18.6 2 Noroeste 5 Norte 0 -- -- 71
2018-06-24 07:00:00 17.2 4 Sudoeste 8 Oeste 0 -- -- 84
2018-06-24 06:00:00 18.2 3 Sudoeste 8 Oeste 0 -- -- 82
2018-06-24 05:00:00 18.7 5 Oeste 9 Sudoeste 0 -- -- 86
2018-06-24 04:00:00 19.4 5 Sudoeste 8 Sudoeste 0 -- -- 85
2018-06-24 03:00:00 21.1 2 Noroeste 6 Nordeste 0 -- -- 78
2018-06-24 02:00:00 21.9 3 Nordeste 8 Nordeste 0 -- -- 76
2018-06-24 01:00:00 22.7 6 Nordeste 9 Nordeste 0 -- -- 74
2018-06-24 00:00:00 24.3 3 Nordeste 15 Nordeste 0 -- -- 67
2018-06-23 23:00:00 25.6 12 Nordeste 17 Nordeste 0 -- -- 63
2018-06-23 22:00:00 28.6 11 Nordeste 19 Nordeste 0 -- -- 49
2018-06-23 21:00:00 30.8 3 Noroeste 9 Norte 0 -- -- 29
2018-06-23 20:00:00 32.1 4 Nordeste 15 Norte 0 -- -- 29
2018-06-23 19:00:00 33.1 4 Nordeste 15 Norte 0 -- -- 28
2018-06-23 18:00:00 34.4 4 Nordeste 24 Norte 0 -- -- 29
2018-06-23 17:00:00 35 6 Noroeste 21 Norte 0 -- -- 28
2018-06-23 16:00:00 33.2 6 Nordeste 21 Norte 0 -- -- 30
2018-06-23 15:00:00 32.4 6 Norte 19 Noroeste 0 -- -- 34
2018-06-23 14:00:00 31.5 5 Noroeste 21 Nordeste 0 -- -- 35
2018-06-23 13:00:00 29.9 8 Noroeste 27 Norte 0 -- -- 38
2018-06-23 12:00:00 28.9 7 Oeste 18 Noroeste 0 -- -- 40
2018-06-23 11:00:00 26.9 7 Noroeste 20 Noroeste 0 -- -- 42
2018-06-23 10:00:00 25 6 Noroeste 16 Noroeste 0 -- -- 47
2018-06-23 09:00:00 22.8 5 Noroeste 16 Noroeste 0 -- -- 51
2018-06-23 08:00:00 19.6 7 Oeste 12 Oeste 0 -- -- 63
2018-06-23 07:00:00 18.1 6 Sudoeste 11 Sudoeste 0 -- -- 67
2018-06-23 06:00:00 18.2 6 Sudoeste 10 Noroeste 0 -- -- 68
2018-06-23 05:00:00 19.4 5 Noroeste 17 Noroeste 0 -- -- 62
2018-06-23 04:00:00 20.3 2 Noroeste 10 Noroeste 0 -- -- 63
2018-06-23 03:00:00 21.2 2 Noroeste 14 Noroeste 0 -- -- 61
2018-06-23 02:00:00 22.6 12 Oeste 22 Oeste 0 -- -- 55
2018-06-23 01:00:00 23.4 17 Oeste 33 Oeste 0 -- -- 53
2018-06-23 00:00:00 24.7 18 Oeste 26 Oeste 0 -- -- 48
2018-06-22 23:00:00 26.1 15 Oeste 32 Oeste 0 -- -- 44
2018-06-22 22:00:00 27.5 10 Noroeste 31 Noroeste 0 -- -- 38
2018-06-22 21:00:00 29.5 10 Noroeste 24 Oeste 0 -- -- 38
2018-06-22 20:00:00 31.5 8 Noroeste 27 Oeste 0 -- -- 36
2018-06-22 19:00:00 33.5 10 Noroeste 30 Norte 0 -- -- 34
2018-06-22 18:00:00 34.9 10 Noroeste 31 Norte 0 -- -- 33
2018-06-22 17:00:00 35.4 9 Noroeste 30 Noroeste 0 -- -- 33
2018-06-22 16:00:00 35.3 7 Noroeste 32 Norte 0 -- -- 34
2018-06-22 15:00:00 34.9 9 Noroeste 25 Noroeste 0 -- -- 36
2018-06-22 14:00:00 33.6 8 Noroeste 23 Norte 0 -- -- 38
2018-06-22 13:00:00 32.5 7 Noroeste 23 Norte 0 -- -- 43
2018-06-22 12:00:00 30.3 9 Noroeste 23 Norte 0 -- -- 47
2018-06-22 11:00:00 28.7 9 Noroeste 26 Oeste 0 -- -- 52
2018-06-22 10:00:00 26.5 9 Oeste 25 Oeste 0 -- -- 56
2018-06-22 09:00:00 24.5 6 Oeste 19 Oeste 0 -- -- 63
2018-06-22 08:00:00 21.7 9 Oeste 17 Noroeste 0 -- -- 70
2018-06-22 07:00:00 20.7 13 Oeste 22 Oeste 0 -- -- 72
2018-06-22 06:00:00 21 13 Oeste 21 Oeste 0 -- -- 70
2018-06-22 05:00:00 21.7 11 Oeste 19 Oeste 0 -- -- 67
2018-06-22 04:00:00 22.7 12 Oeste 24 Oeste 0 -- -- 63
2018-06-22 03:00:00 23.7 13 Oeste 22 Oeste 0 -- -- 59
2018-06-22 02:00:00 24.5 14 Oeste 22 Oeste 0 -- -- 56
2018-06-22 01:00:00 24.7 10 Oeste 20 Oeste 0 -- -- 45
2018-06-22 00:00:00 24.9 9 Sudoeste 14 Sudoeste 0 -- -- 43
2018-06-21 23:00:00 27.3 6 Sudoeste 11 Sudoeste 0 -- -- 37
2018-06-21 22:00:00 30.2 2 Sur 6 Este 0 -- -- 32
2018-06-21 21:00:00 32 4 Este 10 Nordeste 0 -- -- 29
2018-06-21 20:00:00 33.3 4 Norte 15 Nordeste 0 -- -- 27
2018-06-21 19:00:00 34.5 5 Norte 12 Nordeste 0 -- -- 27
2018-06-21 18:00:00 35.5 4 Norte 14 Nordeste 0 -- -- 26
2018-06-21 17:00:00 35.8 6 Norte 18 Nordeste 0 -- -- 27
2018-06-21 16:00:00 35.2 8 Norte 18 Nordeste 0 -- -- 27
2018-06-21 15:00:00 34.5 5 Norte 16 Nordeste 0 -- -- 29
2018-06-21 14:00:00 33.4 5 Norte 15 Nordeste 0 -- -- 29
2018-06-21 13:00:00 31.4 5 Nordeste 18 Nordeste 0 -- -- 32
2018-06-21 12:00:00 29.1 5 Norte 13 Nordeste 0 -- -- 40
2018-06-21 11:00:00 26.9 6 Nordeste 12 Nordeste 0 -- -- 46
2018-06-21 10:00:00 24.8 3 Noroeste 6 Oeste 0 -- -- 51
2018-06-21 09:00:00 20.4 6 Sudoeste 13 Sudoeste 0 -- -- 65
2018-06-21 08:00:00 18.7 9 Sudoeste 14 Sudoeste 0 -- -- 68
2018-06-21 07:00:00 17 8 Sudoeste 12 Oeste 0 -- -- 73
2018-06-21 06:00:00 17.5 8 Oeste 12 Sudoeste 0 -- -- 70
2018-06-21 05:00:00 18 6 Sudoeste 12 Oeste 0 -- -- 68
2018-06-21 04:00:00 18.4 4 Sudoeste 11 Sudoeste 0 -- -- 67
2018-06-21 03:00:00 19.3 9 Sudoeste 12 Sudoeste 0 -- -- 64
2018-06-21 02:00:00 21.4 7 Este 14 Este 0 -- -- 58
2018-06-21 01:00:00 22.8 14 Este 17 Sudeste 0 -- -- 54
2018-06-21 00:00:00 23.6 10 Este 13 Este 0 -- -- 51
2018-06-20 23:00:00 26.5 9 Sur 25 Sur 0 -- -- 43
2018-06-20 22:00:00 28.2 15 Sur 24 Sur 0 -- -- 39
2018-06-20 21:00:00 30.3 16 Sudeste 31 Este 0 -- -- 32
2018-06-20 20:00:00 31.4 21 Este 39 Nordeste 0 -- -- 29
2018-06-20 19:00:00 32.1 24 Nordeste 42 Nordeste 0 -- -- 29
2018-06-20 18:00:00 33.3 20 Este 31 Este 0 -- -- 28
2018-06-20 17:00:00 34.1 6 Norte 27 Nordeste 0 -- -- 27
2018-06-20 16:00:00 34.2 7 Sur 28 Nordeste 0 -- -- 25
2018-06-20 15:00:00 33.1 10 Nordeste 26 Este 0 -- -- 31
2018-06-20 14:00:00 31.5 13 Este 27 Este 0 -- -- 31
2018-06-20 13:00:00 30.3 8 Este 16 Este 0 -- -- 41
2018-06-20 12:00:00 29 4 Nordeste 13 Nordeste 0 -- -- 45
2018-06-20 11:00:00 27 6 Nordeste 14 Norte 0 -- -- 52
2018-06-20 10:00:00 24.9 2 Sudoeste 7 Oeste 0 -- -- 58
2018-06-20 09:00:00 21.9 3 Oeste 9 Sudoeste 0 -- -- 66
2018-06-20 08:00:00 18.5 5 Oeste 9 Sudoeste 0 -- -- 77
2018-06-20 07:00:00 16.6 8 Sudoeste 13 Oeste 0 -- -- 81
2018-06-20 06:00:00 16.9 7 Sudoeste 9 Sudoeste 0 -- -- 79
2018-06-20 05:00:00 18.1 4 Sudoeste 6 Sudoeste 0 -- -- 73
2018-06-20 04:00:00 19.2 5 Sudoeste 6 Sudoeste 0 -- -- 70
2018-06-20 03:00:00 20.8 2 Sudeste 5 Este 0 -- -- 64
2018-06-20 02:00:00 22.1 3 Nordeste 12 Nordeste 0 -- -- 61
2018-06-20 01:00:00 24.3 2 Oeste 22 Sur 0 -- -- 52
2018-06-20 00:00:00 25.2 17 Sur 29 Sur 0 -- -- 50
2018-06-19 23:00:00 25.7 15 Sudeste 25 Este 0 -- -- 48
2018-06-19 22:00:00 27.3 10 Sudeste 12 Sudeste 0 -- -- 42
2018-06-19 21:00:00 28.8 3 Nordeste 11 Nordeste 0 -- -- 39
2018-06-19 20:00:00 29.7 4 Norte 12 Este 0 -- -- 36
2018-06-19 19:00:00 30.6 5 Norte 17 Nordeste 0 -- -- 35
2018-06-19 18:00:00 31.1 9 Nordeste 19 Nordeste 0 -- -- 36
2018-06-19 17:00:00 31.2 6 Norte 20 Nordeste 0 -- -- 36
2018-06-19 16:00:00 30.4 5 Noroeste 18 Nordeste 0 -- -- 38
2018-06-19 15:00:00 29.1 4 Nordeste 21 Nordeste 0 -- -- 41
2018-06-19 14:00:00 27.4 10 Nordeste 19 Nordeste 0 -- -- 43
2018-06-19 13:00:00 26.9 6 Norte 18 Noroeste 0 -- -- 46
2018-06-19 12:00:00 25.4 5 Norte 16 Nordeste 0 -- -- 47
2018-06-19 11:00:00 24.2 6 Noroeste 15 Norte 0 -- -- 51
2018-06-19 10:00:00 22.4 6 Noroeste 17 Oeste 0 -- -- 56
2018-06-19 09:00:00 20.3 6 Noroeste 19 Oeste 0 -- -- 63
2018-06-19 08:00:00 16.9 10 Sudoeste 16 Oeste 0 -- -- 73
2018-06-19 07:00:00 15.6 9 Sudoeste 15 Sudoeste 0 -- -- 77
2018-06-19 06:00:00 15.8 11 Sudoeste 16 Sudoeste 0 -- -- 76
2018-06-19 05:00:00 16.2 12 Sudoeste 17 Sudoeste 0 -- -- 75
2018-06-19 04:00:00 16.5 12 Sudoeste 17 Sudoeste 0 -- -- 74
2018-06-19 03:00:00 17.2 12 Sudoeste 19 Sudoeste 0 -- -- 70
2018-06-19 02:00:00 17.6 12 Sudoeste 18 Sudoeste 0 -- -- 68
2018-06-19 01:00:00 18.1 11 Sudoeste 22 Oeste 0 -- -- 66
2018-06-19 00:00:00 19.2 16 Oeste 30 Oeste 0 -- -- 62
2018-06-18 23:00:00 20.3 16 Oeste 29 Oeste 0 -- -- 58
2018-06-18 22:00:00 21.7 12 Noroeste 32 Noroeste 0 -- -- 54
2018-06-18 21:00:00 24.3 13 Noroeste 33 Oeste 0 -- -- 48
2018-06-18 20:00:00 26.4 17 Noroeste 37 Oeste 0 -- -- 42
2018-06-18 19:00:00 28.5 13 Noroeste 30 Noroeste 0 -- -- 39
2018-06-18 18:00:00 30.4 11 Noroeste 31 Oeste 0 -- -- 37
2018-06-18 17:00:00 30.8 12 Noroeste 30 Noroeste 0 -- -- 35
2018-06-18 16:00:00 30.4 14 Noroeste 37 Norte 0 -- -- 37
2018-06-18 15:00:00 30.5 10 Noroeste 39 Noroeste 0 -- -- 37
2018-06-18 14:00:00 29.3 14 Noroeste 39 Noroeste 0 -- -- 38
2018-06-18 13:00:00 28.3 14 Noroeste 35 Noroeste 0 -- -- 40
2018-06-18 12:00:00 27 12 Noroeste 37 Oeste 0 -- -- 42
2018-06-18 11:00:00 25.5 14 Noroeste 33 Oeste 0 -- -- 45
2018-06-18 10:00:00 23.8 14 Noroeste 36 Noroeste 0 -- -- 48
2018-06-18 09:00:00 22 14 Noroeste 31 Noroeste 0 -- -- 49
2018-06-18 08:00:00 18.7 15 Oeste 26 Oeste 0 -- -- 54
2018-06-18 07:00:00 17 15 Oeste 24 Oeste 0 -- -- 55
2018-06-18 06:00:00 17.3 13 Oeste 32 Oeste 0 -- -- 52
2018-06-18 05:00:00 17.4 13 Oeste 27 Oeste 0 -- -- 49
2018-06-18 04:00:00 17.9 13 Sur 32 Oeste 0 -- -- 45
2018-06-18 03:00:00 18.2 18 Oeste 35 Noroeste 0 -- -- 46
2018-06-18 02:00:00 18.7 16 Noroeste 37 Noroeste 0 -- -- 45
2018-06-18 01:00:00 19.2 19 Oeste 32 Oeste 0 -- -- 46
2018-06-18 00:00:00 20.3 14 Oeste 35 Oeste 0 -- -- 45
2018-06-17 23:00:00 21.8 17 Oeste 35 Oeste 0 -- -- 44
2018-06-17 22:00:00 22.9 13 Noroeste 36 Noroeste 0 -- -- 40
2018-06-17 21:00:00 24.8 10 Noroeste 31 Noroeste 0 -- -- 35
2018-06-17 20:00:00 26.8 11 Noroeste 31 Noroeste 0 -- -- 31
2018-06-17 19:00:00 28.4 11 Noroeste 28 Norte 0 -- -- 27
2018-06-17 18:00:00 29.6 12 Noroeste 32 Noroeste 0 -- -- 30
2018-06-17 17:00:00 29.8 10 Noroeste 32 Noroeste 0 -- -- 29
2018-06-17 16:00:00 29.4 10 Noroeste 42 Norte 0 -- -- 32
2018-06-17 15:00:00 28.3 10 Noroeste 42 Norte 0 -- -- 39
2018-06-17 14:00:00 27.9 10 Noroeste 31 Noroeste 0 -- -- 42
2018-06-17 13:00:00 27.2 12 Noroeste 32 Oeste 0 -- -- 43
2018-06-17 12:00:00 25 12 Noroeste 29 Oeste 0 -- -- 46
2018-06-17 11:00:00 23.5 10 Noroeste 30 Noroeste 0 -- -- 48
2018-06-17 10:00:00 21.1 12 Noroeste 37 Oeste 0 -- -- 52
2018-06-17 09:00:00 19.2 14 Noroeste 36 Oeste 0 -- -- 53
2018-06-17 08:00:00 16.3 12 Oeste 23 Oeste 0 -- -- 61
2018-06-17 07:00:00 14.7 15 Sudoeste 27 Oeste 0 -- -- 65
2018-06-17 06:00:00 14.8 13 Sudoeste 26 Oeste 0 -- -- 68
2018-06-17 05:00:00 15.3 9 Oeste 22 Sudoeste 0 -- -- 65
2018-06-17 04:00:00 16.1 10 Sur 36 Noroeste 0 -- -- 63
2018-06-17 03:00:00 16.9 10 Noroeste 29 Oeste 0 -- -- 59
2018-06-17 02:00:00 17.5 11 Sudoeste 31 Oeste 0 -- -- 58
2018-06-17 01:00:00 18.8 21 Oeste 34 Oeste 0 -- -- 55
2018-06-17 00:00:00 20.1 18 Oeste 33 Oeste 0 -- -- 54